createdAt,value
2023-02-07T00:02:44.122Z,10.80
2023-02-07T00:05:48.176Z,10.68
2023-02-07T00:08:53.670Z,10.98
2023-02-07T00:11:57.915Z,11.15
2023-02-07T00:15:01.976Z,11.12
2023-02-07T00:18:06.055Z,11.16
2023-02-07T00:21:11.282Z,11.56
2023-02-07T00:24:15.758Z,11.73
2023-02-07T00:27:19.939Z,11.81
2023-02-07T00:30:24.018Z,12.05
2023-02-07T00:33:27.978Z,12.07
2023-02-07T00:36:32.163Z,12.23
2023-02-07T00:39:36.010Z,12.28
2023-02-07T00:42:40.045Z,11.90
2023-02-07T00:45:48.299Z,10.84
2023-02-07T00:48:52.312Z,11.10
2023-02-07T00:51:56.232Z,10.56
2023-02-07T00:55:00.629Z,10.00
2023-02-07T00:58:04.717Z,9.63
2023-02-07T01:01:08.597Z,9.98
2023-02-07T01:04:12.307Z,9.38
2023-02-07T01:07:17.885Z,9.32
2023-02-07T01:10:22.098Z,9.11
2023-02-07T01:13:28.298Z,9.21
2023-02-07T01:16:32.151Z,9.08
2023-02-07T01:19:36.164Z,9.21
2023-02-07T01:22:41.706Z,9.04
2023-02-07T01:25:45.642Z,8.95
2023-02-07T01:28:50.073Z,8.97
2023-02-07T01:31:56.280Z,8.65
2023-02-07T01:35:00.429Z,9.06
2023-02-07T01:38:06.247Z,9.19
2023-02-07T01:41:10.124Z,8.98
2023-02-07T01:44:14.106Z,9.02
2023-02-07T01:47:21.627Z,9.39
2023-02-07T01:50:25.720Z,9.10
2023-02-07T01:53:31.563Z,9.28
2023-02-07T01:56:38.466Z,9.22
2023-02-07T01:59:44.083Z,9.83
2023-02-07T02:02:52.251Z,9.40
2023-02-07T02:05:58.280Z,9.60
2023-02-07T02:09:03.781Z,9.48
2023-02-07T02:12:10.919Z,9.77
2023-02-07T02:15:22.987Z,9.74
2023-02-07T02:18:30.024Z,9.61
2023-02-07T02:21:39.023Z,9.32
2023-02-07T02:24:45.993Z,9.40
2023-02-07T02:27:50.407Z,9.69
2023-02-07T02:30:57.367Z,9.57
2023-02-07T02:34:01.312Z,9.98
2023-02-07T02:37:05.367Z,9.58
2023-02-07T02:40:09.548Z,9.50
2023-02-07T02:43:13.717Z,9.73
2023-02-07T02:46:17.529Z,9.41
2023-02-07T02:49:21.620Z,9.79
2023-02-07T02:52:34.481Z,9.50
2023-02-07T02:55:50.742Z,9.76
2023-02-07T02:58:55.026Z,10.10
2023-02-07T03:02:01.941Z,9.65
2023-02-07T03:05:06.139Z,9.67
2023-02-07T03:08:11.185Z,9.70
2023-02-07T03:11:29.638Z,9.79
2023-02-07T03:14:33.743Z,9.86
2023-02-07T03:17:37.966Z,10.48
2023-02-07T03:20:41.873Z,11.27
2023-02-07T03:23:46.813Z,10.45
2023-02-07T03:27:38.172Z,11.09
2023-02-07T03:30:17.541Z,11.30
2023-02-07T03:33:24.982Z,11.14
2023-02-07T03:36:35.997Z,11.01
2023-02-07T03:39:39.953Z,10.80
2023-02-07T03:42:45.516Z,10.49
2023-02-07T03:45:49.724Z,10.99
2023-02-07T03:48:54.992Z,10.71
2023-02-07T03:51:58.982Z,11.14
2023-02-07T03:55:11.579Z,11.28
2023-02-07T03:58:15.548Z,11.54
2023-02-07T04:01:19.639Z,11.72
2023-02-07T04:04:23.334Z,11.62
2023-02-07T04:07:27.460Z,12.30
2023-02-07T04:10:31.832Z,12.83
2023-02-07T04:13:36.048Z,12.97
2023-02-07T04:16:43.090Z,13.13
2023-02-07T04:19:49.074Z,13.51
2023-02-07T04:22:52.794Z,14.20
2023-02-07T04:25:58.383Z,13.95
2023-02-07T04:29:06.084Z,13.47
2023-02-07T04:32:10.144Z,14.18
2023-02-07T04:35:14.215Z,14.21
2023-02-07T04:38:18.351Z,14.46
2023-02-07T04:41:22.189Z,14.39
2023-02-07T04:44:26.249Z,14.77
2023-02-07T04:47:36.361Z,15.33
2023-02-07T04:50:40.435Z,14.91
2023-02-07T04:53:44.408Z,15.92
2023-02-07T04:56:48.828Z,18.03
2023-02-07T05:00:06.404Z,15.52
2023-02-07T05:03:13.163Z,14.74
2023-02-07T05:06:23.020Z,15.19
2023-02-07T05:09:27.540Z,14.88
2023-02-07T05:12:31.525Z,15.03
2023-02-07T05:15:35.820Z,15.57
2023-02-07T05:18:41.101Z,14.94
2023-02-07T05:21:45.332Z,15.06
2023-02-07T05:24:49.069Z,15.39
2023-02-07T05:27:56.323Z,15.24
2023-02-07T05:31:01.704Z,14.60
2023-02-07T05:34:05.675Z,15.20
2023-02-07T05:37:14.962Z,15.32
2023-02-07T05:40:19.040Z,15.25
2023-02-07T05:43:22.947Z,14.91
2023-02-07T05:46:31.354Z,14.96
2023-02-07T05:49:37.451Z,14.37
2023-02-07T05:52:42.347Z,14.39
2023-02-07T05:55:50.958Z,14.79
2023-02-07T05:58:55.161Z,14.18
2023-02-07T06:02:09.267Z,14.63
2023-02-07T06:05:15.937Z,14.27
2023-02-07T06:08:19.974Z,14.51
2023-02-07T06:11:24.493Z,14.36
2023-02-07T06:14:28.605Z,14.96
2023-02-07T06:17:32.785Z,14.61
2023-02-07T06:20:39.461Z,14.71
2023-02-07T06:23:46.097Z,14.32
2023-02-07T06:26:50.050Z,14.68
2023-02-07T06:29:54.285Z,13.58
2023-02-07T06:33:00.448Z,14.59
2023-02-07T06:36:04.475Z,14.76
2023-02-07T06:39:08.540Z,14.30
2023-02-07T06:42:12.678Z,14.83
2023-02-07T06:45:20.912Z,15.01
2023-02-07T06:48:27.947Z,15.05
2023-02-07T06:51:33.789Z,15.05
2023-02-07T06:54:37.721Z,15.74
2023-02-07T06:57:49.068Z,15.66
2023-02-07T07:00:53.192Z,15.85
2023-02-07T07:04:00.284Z,15.87
2023-02-07T07:07:04.419Z,16.33
2023-02-07T07:10:08.975Z,16.15
2023-02-07T07:13:15.353Z,16.55
2023-02-07T07:16:19.973Z,16.01
2023-02-07T07:19:25.976Z,16.75
2023-02-07T07:22:34.344Z,16.25
2023-02-07T07:25:38.800Z,16.87
2023-02-07T07:28:44.665Z,21.97
2023-02-07T07:31:50.340Z,17.13
2023-02-07T07:34:56.378Z,16.60
2023-02-07T07:38:00.844Z,16.83
2023-02-07T07:41:10.870Z,16.86
2023-02-07T07:44:15.174Z,17.36
2023-02-07T07:47:21.050Z,16.58
2023-02-07T07:50:26.994Z,16.42
2023-02-07T07:53:31.043Z,16.52
2023-02-07T07:56:35.102Z,16.44
2023-02-07T07:59:39.233Z,16.35
2023-02-07T08:02:45.346Z,17.24
2023-02-07T08:05:49.345Z,17.66
2023-02-07T08:08:53.197Z,17.20
2023-02-07T08:11:57.313Z,17.18
2023-02-07T08:15:01.313Z,17.68
2023-02-07T08:18:05.333Z,17.56
2023-02-07T08:21:09.103Z,17.43
2023-02-07T08:24:13.153Z,17.10
2023-02-07T08:27:17.146Z,17.05
2023-02-07T08:30:21.196Z,16.67
2023-02-07T08:33:25.209Z,17.18
2023-02-07T08:36:29.433Z,16.73
2023-02-07T08:39:33.195Z,16.01
2023-02-07T08:42:40.360Z,16.09
2023-02-07T08:45:44.662Z,15.99
2023-02-07T08:48:48.524Z,15.40
2023-02-07T08:51:54.805Z,15.35
2023-02-07T08:54:58.662Z,15.30
2023-02-07T08:58:02.724Z,15.17
2023-02-07T09:01:06.901Z,15.12
2023-02-07T09:04:11.118Z,14.79
2023-02-07T09:07:14.960Z,14.68
2023-02-07T09:10:18.816Z,14.63
2023-02-07T09:13:24.459Z,14.24
2023-02-07T09:16:31.763Z,14.28
2023-02-07T09:19:46.314Z,14.80
2023-02-07T09:22:50.388Z,14.49
2023-02-07T09:25:57.525Z,14.28
2023-02-07T09:29:01.612Z,14.75
2023-02-07T09:32:05.724Z,15.13
2023-02-07T09:35:11.127Z,16.22
2023-02-07T09:38:15.981Z,16.56
2023-02-07T09:41:20.082Z,16.50
2023-02-07T09:44:23.991Z,16.56
2023-02-07T09:47:27.956Z,16.65
2023-02-07T09:50:34.235Z,16.30
2023-02-07T09:53:38.340Z,17.26
2023-02-07T09:56:42.302Z,16.46
2023-02-07T09:59:46.412Z,17.59
2023-02-07T10:02:50.757Z,17.02
2023-02-07T10:05:55.137Z,16.61
2023-02-07T10:09:01.137Z,16.67
2023-02-07T10:12:17.228Z,17.18
2023-02-07T10:15:31.591Z,17.09
2023-02-07T10:19:47.717Z,17.10
2023-02-07T10:23:11.857Z,16.82
2023-02-07T10:25:50.152Z,17.27
2023-02-07T10:28:54.469Z,17.19
2023-02-07T10:32:00.391Z,17.22
2023-02-07T10:35:04.744Z,17.67
2023-02-07T10:38:08.848Z,17.20
2023-02-07T10:41:12.348Z,17.37
2023-02-07T10:44:22.600Z,16.89
2023-02-07T10:47:26.913Z,18.67
2023-02-07T10:50:30.931Z,17.34
2023-02-07T10:53:49.066Z,16.40
2023-02-07T10:57:01.944Z,17.19
2023-02-07T11:00:09.631Z,17.68
2023-02-07T11:03:28.142Z,16.93
2023-02-07T11:06:33.767Z,16.64
2023-02-07T11:09:37.844Z,16.93
2023-02-07T11:12:46.065Z,16.48
2023-02-07T11:15:52.232Z,17.66
2023-02-07T11:18:57.517Z,17.52
2023-02-07T11:22:01.732Z,17.76
2023-02-07T11:25:07.653Z,17.30
2023-02-07T11:31:34.471Z,17.90
2023-02-07T11:34:38.173Z,18.30
2023-02-07T11:38:04.767Z,18.03
2023-02-07T11:41:08.381Z,18.28
2023-02-07T11:44:12.429Z,18.07
2023-02-07T11:47:16.568Z,18.37
2023-02-07T11:50:20.666Z,17.78
2023-02-07T11:53:24.830Z,17.71
2023-02-07T11:56:28.843Z,17.57
2023-02-07T11:59:34.657Z,17.83
2023-02-07T12:02:39.668Z,18.07
2023-02-07T12:05:43.748Z,17.74
2023-02-07T12:08:49.430Z,17.00
2023-02-07T12:11:56.566Z,17.55
2023-02-07T12:15:00.447Z,17.86
2023-02-07T12:18:04.243Z,18.00
2023-02-07T12:21:08.167Z,18.43
2023-02-07T12:24:12.545Z,18.19
2023-02-07T12:27:16.656Z,17.88
2023-02-07T12:30:20.480Z,18.23
2023-02-07T12:33:25.831Z,18.53
2023-02-07T12:36:29.996Z,18.21
2023-02-07T12:39:36.149Z,18.20
2023-02-07T12:42:41.512Z,18.87
2023-02-07T12:45:45.599Z,18.52
2023-02-07T12:48:50.840Z,17.96
2023-02-07T12:51:54.859Z,18.97
2023-02-07T12:54:59.028Z,18.59
2023-02-07T12:58:03.384Z,18.26
2023-02-07T13:01:08.885Z,18.16
2023-02-07T13:04:12.854Z,18.30
2023-02-07T13:07:16.845Z,18.71
2023-02-07T13:10:20.681Z,18.03
2023-02-07T13:13:30.836Z,19.24
2023-02-07T13:16:35.898Z,19.17
2023-02-07T13:19:39.747Z,18.24
2023-02-07T13:22:43.972Z,18.71
2023-02-07T13:25:51.327Z,18.37
2023-02-07T13:28:54.952Z,19.03
2023-02-07T13:32:00.651Z,18.93
2023-02-07T13:35:05.574Z,19.03
2023-02-07T13:38:11.146Z,18.73
2023-02-07T13:41:15.576Z,18.56
2023-02-07T13:44:19.828Z,18.80
2023-02-07T13:47:24.058Z,18.67
2023-02-07T13:50:28.612Z,19.05
2023-02-07T13:53:37.104Z,18.85
2023-02-07T13:56:43.475Z,18.52
2023-02-07T13:59:50.801Z,18.71
2023-02-07T14:02:59.219Z,18.99
2023-02-07T14:06:08.130Z,18.60
2023-02-07T14:09:17.589Z,18.24
2023-02-07T14:12:21.855Z,18.99
2023-02-07T14:15:26.818Z,19.17
2023-02-07T14:18:33.052Z,18.90
2023-02-07T14:21:37.136Z,19.28
2023-02-07T14:24:42.138Z,19.35
2023-02-07T14:27:46.332Z,19.03
2023-02-07T14:30:54.808Z,18.68
2023-02-07T14:33:58.957Z,18.35
2023-02-07T14:37:02.960Z,19.28
2023-02-07T14:40:08.267Z,18.51
2023-02-07T14:43:13.635Z,19.50
2023-02-07T14:46:22.876Z,18.77
2023-02-07T14:49:30.713Z,18.89
2023-02-07T14:52:37.726Z,19.14
2023-02-07T14:55:43.591Z,19.28
2023-02-07T14:58:48.876Z,18.93
2023-02-07T15:01:53.020Z,18.42
2023-02-07T15:05:07.500Z,19.51
2023-02-07T15:08:11.816Z,19.22
2023-02-07T15:11:15.580Z,19.56
2023-02-07T15:14:19.439Z,18.95
2023-02-07T15:17:24.603Z,19.05
2023-02-07T15:20:28.980Z,19.54
2023-02-07T15:23:36.384Z,19.69
2023-02-07T15:26:40.509Z,19.49
2023-02-07T15:29:47.502Z,19.45
2023-02-07T15:32:51.439Z,19.27
2023-02-07T15:35:55.644Z,19.50
2023-02-07T15:38:59.560Z,18.78
2023-02-07T15:42:03.334Z,19.00
2023-02-07T15:45:16.168Z,18.62
2023-02-07T15:48:26.916Z,18.79
2023-02-07T15:51:30.875Z,19.26
2023-02-07T15:54:35.211Z,19.33
2023-02-07T15:57:39.158Z,18.70
2023-02-07T16:00:43.162Z,19.25
2023-02-07T16:03:47.371Z,18.62
2023-02-07T16:06:51.567Z,19.17
2023-02-07T16:09:57.658Z,18.98
2023-02-07T16:13:05.598Z,19.02
2023-02-07T16:16:12.761Z,18.64
2023-02-07T16:19:16.787Z,22.92
2023-02-07T16:22:20.628Z,19.48
2023-02-07T16:25:47.377Z,19.01
2023-02-07T16:28:50.997Z,19.26
2023-02-07T16:31:54.899Z,18.65
2023-02-07T16:35:00.214Z,18.44
2023-02-07T16:38:04.493Z,18.92
2023-02-07T16:41:12.866Z,19.10
2023-02-07T16:44:16.704Z,18.54
2023-02-07T16:47:20.667Z,18.99
2023-02-07T16:50:25.020Z,19.03
2023-02-07T16:53:28.919Z,19.54
2023-02-07T16:56:33.953Z,19.19
2023-02-07T16:59:40.306Z,18.94
2023-02-07T17:02:46.461Z,19.05
2023-02-07T17:05:50.518Z,18.77
2023-02-07T17:08:54.313Z,19.46
2023-02-07T17:12:00.695Z,19.31
2023-02-07T17:15:04.694Z,19.49
2023-02-07T17:18:10.608Z,19.22
2023-02-07T17:21:17.671Z,17.13
2023-02-07T17:24:25.186Z,15.86
2023-02-07T17:27:39.569Z,15.69
2023-02-07T17:30:48.306Z,16.10
2023-02-07T17:33:55.038Z,15.92
2023-02-07T17:37:01.473Z,15.59
2023-02-07T17:40:16.010Z,15.90
2023-02-07T17:43:31.999Z,15.95
2023-02-07T17:46:37.812Z,16.23
2023-02-07T17:49:44.281Z,16.49
2023-02-07T17:52:48.380Z,17.77
2023-02-07T17:55:54.078Z,15.70
2023-02-07T17:58:58.633Z,15.08
2023-02-07T18:02:02.373Z,14.77
2023-02-07T18:05:25.199Z,15.45
2023-02-07T18:08:33.540Z,15.65
2023-02-07T18:11:37.743Z,16.67
2023-02-07T18:14:45.568Z,16.63
2023-02-07T18:17:49.916Z,15.11
2023-02-07T18:20:55.085Z,15.23
2023-02-07T18:24:06.602Z,15.10
2023-02-07T18:27:15.271Z,14.64
2023-02-07T18:30:22.520Z,15.09
2023-02-07T18:33:34.378Z,14.95
2023-02-07T18:40:03.104Z,17.97
2023-02-07T18:43:32.003Z,19.36
2023-02-07T18:46:38.978Z,20.37
2023-02-07T18:49:46.513Z,20.54
2023-02-07T18:52:50.489Z,21.03
2023-02-07T18:55:59.930Z,20.74
2023-02-07T18:59:10.363Z,21.56
2023-02-07T19:02:19.342Z,21.98
2023-02-07T19:05:24.654Z,22.72
2023-02-07T19:08:28.459Z,23.17
2023-02-07T19:11:33.686Z,22.54
2023-02-07T19:14:39.036Z,23.72
2023-02-07T19:17:55.009Z,23.01
2023-02-07T19:21:00.382Z,23.17
2023-02-07T19:24:05.869Z,22.29
2023-02-07T19:27:11.249Z,24.49
2023-02-07T19:30:18.879Z,23.75
2023-02-07T19:36:46.487Z,22.61
2023-02-07T19:39:50.778Z,22.78
2023-02-07T19:42:56.554Z,22.42
2023-02-07T19:46:00.692Z,22.85
2023-02-07T19:49:14.774Z,22.95
2023-02-07T19:52:20.482Z,22.72
2023-02-07T19:55:26.180Z,22.60
2023-02-07T19:58:30.371Z,23.02
2023-02-07T20:01:34.636Z,24.85
2023-02-07T20:04:38.782Z,22.10
2023-02-07T20:07:43.266Z,22.80
2023-02-07T20:10:49.684Z,22.67
2023-02-07T20:13:53.725Z,23.36
2023-02-07T20:17:00.915Z,23.70
2023-02-07T20:20:09.173Z,23.97
2023-02-07T20:23:15.054Z,23.51
2023-02-07T20:26:19.162Z,24.14
2023-02-07T20:29:23.478Z,24.68
2023-02-07T20:32:29.123Z,24.93
2023-02-07T20:35:34.246Z,25.50
2023-02-07T20:38:51.374Z,25.58
2023-02-07T20:41:55.488Z,26.44
2023-02-07T20:44:59.732Z,26.67
2023-02-07T20:48:03.940Z,27.00
2023-02-07T20:51:07.853Z,27.96
2023-02-07T20:54:13.111Z,27.50
2023-02-07T20:57:18.415Z,28.14
2023-02-07T21:00:22.957Z,27.73
2023-02-07T21:03:26.890Z,28.16
2023-02-07T21:06:38.216Z,28.62
2023-02-07T21:10:05.288Z,28.31
2023-02-07T21:13:07.784Z,28.75
2023-02-07T21:16:15.970Z,28.95
2023-02-07T21:19:20.158Z,28.94
2023-02-07T21:22:24.123Z,29.36
2023-02-07T21:25:32.425Z,29.09
2023-02-07T21:28:36.971Z,29.45
2023-02-07T21:31:40.826Z,30.12
2023-02-07T21:34:44.771Z,30.03
2023-02-07T21:37:48.993Z,29.82
2023-02-07T21:40:53.842Z,30.20
2023-02-07T21:43:59.993Z,30.04
2023-02-07T21:47:04.007Z,29.68
2023-02-07T21:50:07.631Z,29.45
2023-02-07T21:53:12.299Z,29.83
2023-02-07T21:56:17.743Z,29.80
2023-02-07T22:02:55.213Z,29.47
2023-02-07T22:05:59.468Z,29.78
2023-02-07T22:09:04.880Z,30.18
2023-02-07T22:12:15.115Z,29.46
2023-02-07T22:15:19.256Z,30.59
2023-02-07T22:18:33.936Z,31.31
2023-02-07T22:21:38.003Z,30.74
2023-02-07T22:24:42.184Z,29.72
2023-02-07T22:27:46.377Z,29.34
2023-02-07T22:30:50.611Z,30.29
2023-02-07T22:33:54.720Z,30.18
2023-02-07T22:36:58.878Z,29.01
2023-02-07T22:40:03.120Z,28.96
2023-02-07T22:43:07.103Z,29.22
2023-02-07T22:46:11.343Z,30.45
2023-02-07T22:49:16.559Z,30.02
2023-02-07T22:52:20.770Z,29.37
2023-02-07T22:55:24.808Z,29.87
2023-02-07T22:58:29.206Z,30.13
2023-02-07T23:01:35.396Z,29.71
2023-02-07T23:04:39.354Z,30.59
2023-02-07T23:07:43.362Z,29.53
2023-02-07T23:10:47.658Z,29.82
2023-02-07T23:13:51.825Z,29.76
2023-02-07T23:16:55.833Z,28.99
2023-02-07T23:19:59.863Z,28.98
2023-02-07T23:23:03.680Z,29.54
2023-02-07T23:26:07.586Z,28.41
2023-02-07T23:29:12.910Z,29.92
2023-02-07T23:32:16.925Z,31.00
2023-02-07T23:35:22.729Z,31.02
2023-02-07T23:38:26.871Z,31.26
2023-02-07T23:41:31.167Z,31.35
2023-02-07T23:44:36.369Z,31.38
2023-02-07T23:47:40.658Z,31.00
2023-02-07T23:50:44.445Z,30.76
2023-02-07T23:53:48.478Z,30.95
2023-02-07T23:56:54.638Z,30.82
